Time;durP1;ratioP1;P1;durP2;ratioP2;P2;SDS_P1;SDS_P2;PMS_P1;PMS_P2;Temp;Humidity;BMP_temperature;BMP_pressure;BME280_temperature;BME280_humidity;BME280_pressure;Samples;Min_cycle;Max_cycle;Signal;HPM_P1;HPM_P2
2023/03/27 00:04:35;;;;;;;14.10;4.90;;;;;;;2.92;100.00;99227.61;217906;1288;139099;-85
2023/03/27 00:09:36;;;;;;;19.50;7.60;;;;;;;2.88;100.00;99247.48;217363;1289;139697;-86
2023/03/27 00:14:36;;;;;;;50.40;20.40;;;;;;;2.85;100.00;99254.87;217924;1289;142491;-84
2023/03/27 00:19:37;;;;;;;63.00;26.50;;;;;;;2.85;100.00;99269.23;217493;1291;139250;-86
2023/03/27 00:24:38;;;;;;;26.90;11.50;;;;;;;2.89;100.00;99262.23;217810;1288;139121;-86
2023/03/27 00:29:38;;;;;;;27.70;12.80;;;;;;;2.94;100.00;99266.17;217357;1288;141777;-86
2023/03/27 00:34:39;;;;;;;16.00;4.40;;;;;;;2.99;100.00;99273.90;217907;1289;138993;-85
2023/03/27 00:39:40;;;;;;;11.20;3.50;;;;;;;3.03;100.00;99281.90;217366;1290;139098;-86
2023/03/27 00:44:41;;;;;;;14.30;3.40;;;;;;;3.08;100.00;99286.61;217825;1289;139558;-85
2023/03/27 00:49:42;;;;;;;12.90;5.10;;;;;;;3.12;100.00;99287.86;217457;1291;139501;-86
2023/03/27 00:54:45;;;;;;;15.60;3.40;;;;;;;3.17;100.00;99282.05;217942;1288;138597;-86
2023/03/27 00:59:48;;;;;;;10.80;3.20;;;;;;;3.21;100.00;99282.63;217372;1289;139083;-85
2023/03/27 01:04:49;;;;;;;12.20;2.90;;;;;;;3.26;100.00;99286.14;217930;1289;138696;-85
2023/03/27 01:09:50;;;;;;;12.80;3.90;;;;;;;3.30;100.00;99282.02;217332;1288;141251;-84
2023/03/27 01:14:59;;;;;;;19.30;7.00;;;;;;;3.34;100.00;99283.83;217779;1290;138952;-84
2023/03/27 01:20:33;;;;;;;17.00;5.30;;;;;;;3.38;100.00;99284.92;217423;1289;139093;-84
2023/03/27 01:26:23;;;;;;;12.50;4.30;;;;;;;3.41;100.00;99283.67;217857;1288;138607;-84
2023/03/27 01:31:56;;;;;;;16.50;4.40;;;;;;;3.45;100.00;99279.55;216673;1289;139038;-84
2023/03/27 01:37:23;;;;;;;9.70;3.40;;;;;;;3.47;100.00;99276.95;217791;1288;138713;-85
2023/03/27 01:42:33;;;;;;;10.40;3.20;;;;;;;3.49;100.00;99272.34;217305;1291;139344;-85
2023/03/27 01:47:52;;;;;;;13.10;4.10;;;;;;;3.51;100.00;99278.42;217844;1289;139664;-85
2023/03/27 01:53:00;;;;;;;14.20;4.00;;;;;;;3.51;100.00;99288.95;217312;1288;139301;-85
2023/03/27 01:58:12;;;;;;;15.20;4.10;;;;;;;3.51;100.00;99289.47;217857;1289;139291;-85
2023/03/27 02:03:22;;;;;;;10.60;3.10;;;;;;;3.50;99.94;99296.05;217320;1291;139613;-86
2023/03/27 02:08:28;;;;;;;13.20;3.00;;;;;;;3.47;99.46;99290.48;218019;1289;97945;-84
2023/03/27 02:13:41;;;;;;;8.10;2.20;;;;;;;3.43;99.19;99288.06;217390;1290;138382;-85
2023/03/27 02:18:48;;;;;;;7.30;2.00;;;;;;;3.37;99.18;99295.15;217886;1289;138310;-85
2023/03/27 02:23:48;;;;;;;6.80;2.10;;;;;;;3.32;98.97;99297.45;217600;1288;139683;-85
2023/03/27 02:29:11;;;;;;;6.80;2.10;;;;;;;3.25;98.70;99296.20;217424;1291;138597;-85
2023/03/27 02:34:34;;;;;;;5.00;1.60;;;;;;;3.15;98.70;99298.48;217751;1288;138532;-85
2023/03/27 02:39:47;;;;;;;5.20;1.80;;;;;;;3.07;98.46;99305.73;217218;1289;139261;-85
2023/03/27 02:44:51;;;;;;;5.70;1.40;;;;;;;2.99;98.67;99304.00;217874;1288;138357;-85
2023/03/27 02:49:56;;;;;;;6.50;1.90;;;;;;;2.88;98.16;99309.13;217459;1289;138910;-86
2023/03/27 02:55:05;;;;;;;5.60;1.70;;;;;;;2.80;98.12;99308.86;217857;1289;139068;-85
2023/03/27 03:00:13;;;;;;;6.20;1.70;;;;;;;2.71;97.42;99314.30;217283;1289;139236;-85
2023/03/27 03:05:19;;;;;;;5.30;1.50;;;;;;;2.62;96.88;99313.85;217902;1289;138313;-85
2023/03/27 03:10:20;;;;;;;5.90;1.70;;;;;;;2.54;96.72;99317.62;217327;1289;141448;-85
2023/03/27 03:15:20;;;;;;;9.30;1.80;;;;;;;2.46;96.30;99323.38;217849;1289;138387;-85
2023/03/27 03:20:22;;;;;;;2.70;1.10;;;;;;;2.40;96.38;99328.27;217481;1289;138690;-85
2023/03/27 03:25:24;;;;;;;4.80;1.50;;;;;;;2.34;96.58;99337.80;217870;1288;138230;-86
2023/03/27 03:30:26;;;;;;;9.40;1.50;;;;;;;2.28;96.51;99350.05;217340;1288;138825;-85
2023/03/27 03:35:27;;;;;;;7.70;1.90;;;;;;;2.23;96.66;99358.98;217899;1288;138852;-85
2023/03/27 03:40:27;;;;;;;4.90;1.20;;;;;;;2.19;96.78;99364.46;217428;1288;138809;-86
2023/03/27 03:45:28;;;;;;;3.50;1.30;;;;;;;2.15;96.94;99362.96;217899;1288;138543;-85
2023/03/27 03:50:28;;;;;;;7.40;1.60;;;;;;;2.13;97.11;99366.16;217493;1291;138684;-86
2023/03/27 03:55:28;;;;;;;5.20;1.70;;;;;;;2.12;97.19;99374.98;217959;1289;138574;-85
2023/03/27 04:00:29;;;;;;;6.30;1.70;;;;;;;2.11;97.26;99379.92;217421;1289;139361;-86
2023/03/27 04:05:30;;;;;;;5.20;1.60;;;;;;;2.10;97.57;99389.66;217946;1289;138599;-85
2023/03/27 04:10:31;;;;;;;6.70;1.50;;;;;;;2.09;97.61;99394.20;217213;1288;241009;-85
2023/03/27 04:15:32;;;;;;;3.90;1.50;;;;;;;2.10;98.02;99403.92;217876;1289;139269;-85
2023/03/27 04:20:34;;;;;;;9.40;1.70;;;;;;;2.10;97.72;99414.38;217477;1288;139015;-85
2023/03/27 04:25:34;;;;;;;5.10;1.70;;;;;;;2.10;97.67;99419.73;217898;1289;138187;-85
2023/03/27 04:30:35;;;;;;;6.50;2.40;;;;;;;2.10;97.70;99436.41;217388;1288;139151;-85
2023/03/27 04:35:36;;;;;;;10.50;2.00;;;;;;;2.10;97.62;99440.16;217958;1288;138786;-85
2023/03/27 04:40:37;;;;;;;6.50;1.20;;;;;;;2.11;97.65;99441.08;217316;1288;138906;-85
2023/03/27 04:45:38;;;;;;;5.60;1.60;;;;;;;2.12;97.43;99443.06;217935;1289;138365;-86
2023/03/27 04:50:39;;;;;;;3.50;1.10;;;;;;;2.14;97.64;99446.98;217389;1288;139208;-85
2023/03/27 04:55:39;;;;;;;6.70;1.70;;;;;;;2.15;96.99;99456.39;218019;1289;96233;-85
2023/03/27 05:00:41;;;;;;;5.80;1.30;;;;;;;2.16;96.66;99462.26;217376;1289;138820;-85
2023/03/27 05:05:41;;;;;;;5.20;1.40;;;;;;;2.17;96.56;99475.67;217773;1288;138696;-83
2023/03/27 05:10:43;;;;;;;5.50;1.50;;;;;;;2.17;96.25;99484.30;217285;1288;140113;-83
2023/03/27 05:15:43;;;;;;;5.90;1.80;;;;;;;2.19;96.26;99499.33;217840;1289;138542;-84
2023/03/27 05:20:47;;;;;;;4.20;1.30;;;;;;;2.21;95.96;99501.79;217361;1290;138459;-83
2023/03/27 05:25:48;;;;;;;3.50;1.60;;;;;;;2.23;96.06;99508.14;217937;1288;96616;-84
2023/03/27 05:30:48;;;;;;;8.30;1.60;;;;;;;2.25;95.85;99510.21;217386;1288;139096;-82
2023/03/27 05:35:51;;;;;;;6.50;1.80;;;;;;;2.27;95.94;99512.65;217915;1288;138595;-82
2023/03/27 05:40:51;;;;;;;6.40;1.80;;;;;;;2.27;95.57;99516.95;217372;1288;139252;-81
2023/03/27 05:45:51;;;;;;;4.50;1.90;;;;;;;2.28;95.29;99523.23;217953;1288;138496;-83
2023/03/27 05:50:52;;;;;;;6.30;1.70;;;;;;;2.29;94.58;99532.51;217359;1289;140236;-82
2023/03/27 05:55:52;;;;;;;3.10;1.50;;;;;;;2.29;93.58;99538.08;217997;1289;96766;-82
2023/03/27 06:00:53;;;;;;;4.80;1.30;;;;;;;2.29;92.48;99546.16;217228;1288;138093;-82
2023/03/27 06:05:54;;;;;;;4.30;0.90;;;;;;;2.33;91.88;99548.91;217980;1288;138486;-83
2023/03/27 06:10:56;;;;;;;3.80;1.00;;;;;;;2.35;90.13;99553.70;217418;1289;138634;-83
2023/03/27 06:15:56;;;;;;;2.00;1.00;;;;;;;2.39;89.63;99562.02;217924;1288;138510;-83
2023/03/27 06:20:57;;;;;;;6.10;1.30;;;;;;;2.47;89.33;99571.98;217367;1288;138802;-84
2023/03/27 06:25:58;;;;;;;2.30;0.80;;;;;;;2.57;88.87;99580.27;217999;1288;96599;-82
2023/03/27 06:30:58;;;;;;;6.90;1.40;;;;;;;2.69;88.38;99586.42;217397;1288;138661;-84
2023/03/27 06:36:00;;;;;;;4.60;1.30;;;;;;;2.79;87.72;99591.36;217881;1288;138370;-84
2023/03/27 06:41:00;;;;;;;2.20;0.90;;;;;;;2.90;86.45;99602.48;217424;1289;138847;-84
2023/03/27 06:46:01;;;;;;;1.80;0.80;;;;;;;2.99;86.04;99611.58;217948;1289;138633;-84
2023/03/27 06:51:02;;;;;;;1.20;0.50;;;;;;;3.04;84.59;99616.83;217382;1288;138448;-84
2023/03/27 06:56:03;;;;;;;1.70;0.60;;;;;;;3.11;84.37;99627.98;217986;1291;96436;-84
2023/03/27 07:01:03;;;;;;;6.80;1.10;;;;;;;3.25;84.29;99635.22;217313;1289;138459;-84
2023/03/27 07:06:04;;;;;;;2.50;0.90;;;;;;;3.40;83.82;99642.15;217974;1289;138472;-84
2023/03/27 07:11:05;;;;;;;2.40;0.80;;;;;;;3.46;82.67;99641.76;217425;1291;138997;-84
2023/03/27 07:16:06;;;;;;;6.30;1.90;;;;;;;3.51;82.74;99640.10;217921;1289;138587;-83
2023/03/27 07:21:07;;;;;;;10.10;3.30;;;;;;;3.57;82.60;99646.94;217301;1288;139252;-83
2023/03/27 07:26:07;;;;;;;3.00;1.00;;;;;;;3.61;82.48;99662.69;218084;1289;96496;-83
2023/03/27 07:31:12;;;;;;;4.70;1.30;;;;;;;3.63;81.91;99668.17;217389;1289;138947;-83
2023/03/27 07:36:13;;;;;;;3.40;1.40;;;;;;;3.72;81.88;99677.37;217807;1289;138389;-84
2023/03/27 07:41:13;;;;;;;4.00;1.60;;;;;;;3.79;80.61;99682.60;217416;1289;138440;-84
2023/03/27 07:46:14;;;;;;;6.00;1.70;;;;;;;3.83;80.45;99687.74;217855;1289;138522;-85
2023/03/27 07:51:15;;;;;;;2.60;0.90;;;;;;;3.93;80.85;99691.71;217414;1289;139289;-83
2023/03/27 07:56:16;;;;;;;2.70;1.10;;;;;;;4.03;80.90;99701.48;218034;1289;96480;-85
2023/03/27 08:01:16;;;;;;;3.70;1.50;;;;;;;4.09;80.63;99698.44;217379;1289;139222;-85
2023/03/27 08:06:17;;;;;;;3.80;1.20;;;;;;;4.18;80.45;99702.80;217893;1289;138397;-87
2023/03/27 08:11:18;;;;;;;3.60;1.20;;;;;;;4.26;79.15;99715.73;217320;1289;138898;-85
2023/03/27 08:16:19;;;;;;;3.60;0.70;;;;;;;4.28;77.64;99730.03;217829;1289;138482;-85
2023/03/27 08:21:20;;;;;;;5.40;1.20;;;;;;;4.28;76.44;99737.89;217290;1289;138990;-88
2023/03/27 08:26:20;;;;;;;2.20;0.90;;;;;;;4.30;75.76;99747.21;217992;1289;96209;-85
2023/03/27 08:31:21;;;;;;;5.00;0.90;;;;;;;4.37;76.12;99753.15;217334;1290;138492;-85
2023/03/27 08:36:21;;;;;;;3.60;1.20;;;;;;;4.59;76.44;99753.76;217872;1290;138425;-84
2023/03/27 08:41:29;;;;;;;2.40;0.70;;;;;;;4.89;75.98;99750.42;217430;1288;138577;-85
2023/03/27 08:46:37;;;;;;;1.90;0.70;;;;;;;5.14;73.98;99747.39;217853;1289;138304;-87
2023/03/27 08:51:43;;;;;;;2.20;1.00;;;;;;;5.31;73.38;99762.48;217358;1289;139306;-87
2023/03/27 08:56:44;;;;;;;2.90;0.80;;;;;;;5.54;71.56;99765.77;217866;1289;138508;-87
2023/03/27 09:02:18;;;;;;;2.30;0.80;;;;;;;5.83;72.22;99774.47;217607;1288;139564;-88
2023/03/27 09:07:26;;;;;;;5.80;0.80;;;;;;;6.26;70.74;99779.11;217894;1288;138616;-89
2023/03/27 09:12:42;;;;;;;2.90;0.70;;;;;;;6.74;70.63;99779.30;217249;1288;139709;-87
2023/03/27 09:17:52;;;;;;;2.50;1.00;;;;;;;7.45;70.88;99773.38;217895;1288;138647;-87
2023/03/27 09:23:20;;;;;;;4.20;1.00;;;;;;;8.04;68.96;99784.42;217351;1288;138614;-89
2023/03/27 09:28:35;;;;;;;2.20;0.70;;;;;;;8.29;66.91;99792.61;217764;1289;138919;-87
2023/03/27 09:33:40;;;;;;;1.80;0.70;;;;;;;8.38;65.90;99792.46;217400;1288;138712;-84
2023/03/27 09:38:44;;;;;;;3.60;1.10;;;;;;;8.36;65.58;99800.35;217812;1288;138447;-84
2023/03/27 09:43:54;;;;;;;1.20;0.50;;;;;;;8.33;64.16;99801.10;217671;1288;138044;-86
2023/03/27 09:49:00;;;;;;;4.80;1.20;;;;;;;8.16;63.05;99810.16;217365;1289;139519;-86
2023/03/27 09:54:01;;;;;;;2.50;0.80;;;;;;;8.06;63.63;99816.61;217897;1288;138436;-85
2023/03/27 09:59:09;;;;;;;4.50;1.20;;;;;;;8.02;62.50;99818.99;217368;1288;138984;-85
2023/03/27 10:04:13;;;;;;;3.60;0.80;;;;;;;7.92;63.26;99822.01;217893;1288;138291;-84
2023/03/27 10:09:21;;;;;;;1.90;0.90;;;;;;;7.93;63.28;99824.36;217312;1288;138667;-84
2023/03/27 10:14:25;;;;;;;2.20;0.70;;;;;;;7.75;61.43;99829.15;217969;1291;107858;-84
2023/03/27 10:19:29;;;;;;;4.30;1.10;;;;;;;7.60;62.22;99833.65;217386;1288;138260;-88
2023/03/27 10:24:35;;;;;;;1.10;0.60;;;;;;;7.43;62.07;99840.06;217802;1289;137556;-84
2023/03/27 10:29:36;;;;;;;2.30;1.00;;;;;;;7.42;63.40;99846.85;217430;1288;138094;-84
2023/03/27 10:34:42;;;;;;;1.10;0.70;;;;;;;7.56;63.61;99849.56;217875;1291;138082;-83
2023/03/27 10:39:42;;;;;;;5.20;0.80;;;;;;;7.66;62.44;99853.84;217338;1291;137841;-85
2023/03/27 10:44:46;;;;;;;2.00;0.90;;;;;;;7.57;61.39;99864.36;217962;1288;137622;-85
2023/03/27 10:50:14;;;;;;;2.90;0.90;;;;;;;7.53;62.17;99862.81;217469;1288;138886;-85
2023/03/27 10:55:43;;;;;;;2.00;0.90;;;;;;;7.62;61.65;99859.88;216411;1291;137472;-85
2023/03/27 11:00:52;;;;;;;2.80;0.80;;;;;;;7.82;61.94;99862.04;213535;1293;138150;-85
2023/03/27 11:05:53;;;;;;;1.50;0.60;;;;;;;7.92;61.51;99863.89;214091;1292;138140;-88
2023/03/27 11:11:00;;;;;;;2.20;0.90;;;;;;;7.99;61.02;99867.58;213563;1289;138925;-86
2023/03/27 11:16:10;;;;;;;2.60;0.80;;;;;;;7.97;59.71;99875.14;214247;1294;137674;-86
2023/03/27 11:21:16;;;;;;;1.50;0.90;;;;;;;7.94;61.52;99887.23;213667;1292;137869;-88
2023/03/27 11:26:18;;;;;;;;;;;;;;;8.00;60.24;99895.47;214386;1293;108679;-85
2023/03/27 11:31:45;;;;;;;3.30;1.00;;;;;;;8.02;62.00;99893.29;213694;1294;124584;-85
2023/03/27 11:36:55;;;;;;;;;;;;;;;8.15;60.33;99900.03;214041;1289;137622;-85
2023/03/27 11:41:58;;;;;;;3.70;1.40;;;;;;;8.03;60.37;99907.63;213755;1294;124244;-85
2023/03/27 11:47:31;;;;;;;5.30;1.30;;;;;;;7.98;61.21;99914.38;214572;1291;138314;-86
2023/03/27 11:52:45;;;;;;;5.90;1.30;;;;;;;7.82;59.57;99923.78;213805;1292;138241;-87
2023/03/27 11:58:15;;;;;;;4.40;1.40;;;;;;;7.64;60.55;99927.83;214194;1288;137999;-89
2023/03/27 12:03:34;;;;;;;4.20;1.20;;;;;;;7.62;60.98;99928.13;213388;1290;138686;-85
2023/03/27 12:09:11;;;;;;;10.10;2.30;;;;;;;7.75;61.54;99928.08;214538;1289;97857;-85
2023/03/27 12:14:45;;;;;;;2.20;1.40;;;;;;;8.02;61.58;99924.54;213887;1294;137972;-85
2023/03/27 12:20:04;;;;;;;2.90;1.20;;;;;;;8.27;60.33;99929.81;213739;1289;138309;-84
2023/03/27 12:25:20;;;;;;;2.80;1.30;;;;;;;8.22;59.87;99932.50;213895;1294;137907;-84
2023/03/27 12:30:32;;;;;;;3.40;1.40;;;;;;;8.19;61.05;99944.66;213426;1293;138105;-86
2023/03/27 12:35:40;;;;;;;3.70;1.50;;;;;;;8.08;60.37;99947.87;213760;1294;137917;-88
2023/03/27 12:40:57;;;;;;;8.80;2.70;;;;;;;7.77;61.49;99957.69;213609;1294;138876;-85
2023/03/27 12:46:23;;;;;;;4.60;1.40;;;;;;;7.61;63.92;99962.14;213937;1288;138484;-85
2023/03/27 12:51:47;;;;;;;4.30;1.30;;;;;;;7.56;64.33;99967.67;213537;1293;137804;-84
2023/03/27 12:57:04;;;;;;;4.20;1.60;;;;;;;7.53;65.12;99969.28;213887;1289;139137;-87
2023/03/27 13:02:07;;;;;;;;;;;;;;;7.49;63.59;99971.11;213378;1289;137812;-87
2023/03/27 13:07:43;;;;;;;4.20;1.30;;;;;;;7.42;62.68;99970.61;213993;1294;124610;-86
2023/03/27 13:13:03;;;;;;;5.90;1.80;;;;;;;7.43;62.84;99979.38;213073;1292;137958;-87
2023/03/27 13:18:30;;;;;;;4.10;1.60;;;;;;;7.38;63.00;99985.15;214166;1292;138183;-86
2023/03/27 13:23:48;;;;;;;3.90;1.60;;;;;;;7.38;63.11;99984.92;213402;1294;138145;-89
2023/03/27 13:28:52;;;;;;;3.60;1.40;;;;;;;7.57;64.13;99985.70;213369;1294;138375;-86
2023/03/27 13:34:31;;;;;;;3.20;1.40;;;;;;;7.77;62.42;99983.05;214109;1293;139092;-85
2023/03/27 13:39:58;;;;;;;3.50;1.00;;;;;;;7.98;59.94;99994.53;213624;1294;138550;-86
2023/03/27 13:45:08;;;;;;;3.30;1.20;;;;;;;8.06;58.56;99991.52;214328;1295;137923;-87
2023/03/27 13:50:41;;;;;;;2.70;1.00;;;;;;;8.20;57.79;99996.13;213556;1292;138990;-87
2023/03/27 13:56:13;;;;;;;4.20;1.40;;;;;;;8.16;56.12;100007.80;213913;1294;137426;-89
2023/03/27 14:01:24;;;;;;;12.90;5.20;;;;;;;8.07;55.14;100014.48;213510;1294;138491;-88
2023/03/27 14:06:43;;;;;;;8.00;3.30;;;;;;;7.95;53.71;100018.92;213899;1294;138401;-89
2023/03/27 14:12:21;;;;;;;6.50;2.30;;;;;;;7.92;53.50;100029.20;213514;1294;138403;-86
2023/03/27 14:17:37;;;;;;;8.10;2.80;;;;;;;7.97;54.06;100031.95;214084;1294;137796;-87
2023/03/27 14:22:47;;;;;;;5.00;2.40;;;;;;;8.01;53.34;100045.33;213528;1289;138274;-89
2023/03/27 14:27:52;;;;;;;3.30;1.20;;;;;;;7.95;52.19;100048.69;214016;1294;138475;-89
2023/03/27 14:32:55;;;;;;;4.00;1.30;;;;;;;7.73;51.51;100059.20;213412;1294;137978;-87
2023/03/27 14:38:15;;;;;;;2.40;1.10;;;;;;;7.63;51.83;100068.81;214118;1294;97970;-89
2023/03/27 14:43:17;;;;;;;22.10;7.40;;;;;;;7.37;51.65;100081.20;213670;1293;138966;-87
2023/03/27 14:48:46;;;;;;;10.40;4.40;;;;;;;7.21;52.34;100082.67;214383;1294;137875;-92
2023/03/27 14:53:49;;;;;;;6.00;2.40;;;;;;;7.04;52.56;100085.72;214372;1295;138475;-91
2023/03/27 14:58:53;;;;;;;5.60;1.30;;;;;;;6.89;51.91;100092.30;214065;1289;139026;-90
2023/03/27 15:03:54;;;;;;;3.90;1.50;;;;;;;6.70;52.40;100096.19;214671;1288;138052;-88
2023/03/27 15:08:59;;;;;;;5.50;1.90;;;;;;;6.56;52.69;100107.15;214143;1289;138510;-89
2023/03/27 15:14:01;;;;;;;5.40;1.90;;;;;;;6.40;52.06;100111.39;214999;1292;107921;-88
2023/03/27 15:19:33;;;;;;;7.40;2.20;;;;;;;6.28;51.68;100114.10;213552;1293;138825;-88
2023/03/27 15:24:44;;;;;;;4.10;1.20;;;;;;;6.22;51.26;100122.70;213844;1297;138168;-87
2023/03/27 15:29:56;;;;;;;3.80;1.40;;;;;;;6.14;51.79;100132.64;213421;1294;138236;-87
2023/03/27 15:35:02;;;;;;;3.50;1.50;;;;;;;6.09;52.61;100139.33;214247;1293;138549;-87
2023/03/27 15:40:25;;;;;;;3.20;0.90;;;;;;;5.99;52.47;100146.20;213383;1289;138265;-89
2023/03/27 15:45:37;;;;;;;4.80;1.80;;;;;;;5.91;52.53;100146.28;213926;1294;138592;-87
2023/03/27 15:50:37;;;;;;;5.10;1.60;;;;;;;5.84;52.75;100147.52;213782;1292;137995;-88
2023/03/27 15:55:54;;;;;;;4.20;1.60;;;;;;;5.79;53.01;100153.99;214092;1293;137873;-87
2023/03/27 16:01:00;;;;;;;3.20;1.00;;;;;;;5.65;52.41;100163.46;213619;1291;139950;-86
2023/03/27 16:06:02;;;;;;;5.70;1.70;;;;;;;5.52;53.51;100166.45;213910;1289;137907;-86
2023/03/27 16:11:03;;;;;;;5.70;1.70;;;;;;;5.43;53.80;100172.08;213949;1289;227624;-87
2023/03/27 16:16:20;;;;;;;4.50;1.60;;;;;;;5.37;53.58;100179.79;214602;1291;140487;-87
2023/03/27 16:21:23;;;;;;;8.40;3.40;;;;;;;5.34;54.37;100182.96;214051;1288;138444;-85
2023/03/27 16:26:29;;;;;;;6.90;2.10;;;;;;;5.29;54.31;100194.41;214134;1292;98376;-86
2023/03/27 16:31:30;;;;;;;5.10;2.30;;;;;;;5.19;53.95;100201.64;213689;1289;137981;-85
2023/03/27 16:36:31;;;;;;;7.10;2.70;;;;;;;5.09;54.29;100206.17;214080;1289;137804;-85
2023/03/27 16:41:32;;;;;;;4.40;1.60;;;;;;;4.99;54.62;100212.49;213545;1292;138217;-84
2023/03/27 16:46:32;;;;;;;8.90;3.00;;;;;;;4.88;54.67;100218.56;214125;1295;138165;-86
2023/03/27 16:51:34;;;;;;;10.80;3.90;;;;;;;4.78;54.13;100223.63;213562;1293;138409;-87
2023/03/27 16:56:35;;;;;;;9.80;3.50;;;;;;;4.67;54.96;100233.96;214338;1291;104120;-86
2023/03/27 17:01:35;;;;;;;13.40;4.60;;;;;;;4.55;54.44;100238.23;213544;1291;138808;-86
2023/03/27 17:06:37;;;;;;;7.40;2.90;;;;;;;4.41;54.39;100241.44;214197;1291;137998;-87
2023/03/27 17:11:38;;;;;;;27.60;11.30;;;;;;;4.28;54.28;100253.00;213473;1291;138179;-86
2023/03/27 17:16:39;;;;;;;29.10;12.00;;;;;;;4.17;55.65;100256.35;214381;1288;138862;-85
2023/03/27 17:21:39;;;;;;;35.60;13.70;;;;;;;4.03;56.06;100264.16;213590;1289;138673;-86
2023/03/27 17:26:39;;;;;;;23.10;9.30;;;;;;;3.92;56.67;100265.70;214217;1292;105959;-86
2023/03/27 17:31:40;;;;;;;41.00;15.90;;;;;;;3.83;58.51;100272.48;213787;1288;138839;-85
2023/03/27 17:36:41;;;;;;;55.70;22.80;;;;;;;3.72;59.21;100273.16;214253;1292;138038;-85
2023/03/27 17:41:41;;;;;;;66.40;26.60;;;;;;;3.61;60.45;100278.44;213810;1288;138513;-85
2023/03/27 17:46:41;;;;;;;95.00;36.50;;;;;;;3.44;59.15;100281.01;214282;1292;138162;-84
2023/03/27 17:51:42;;;;;;;88.20;36.10;;;;;;;3.24;59.63;100285.37;213757;1291;138968;-85
2023/03/27 17:56:42;;;;;;;36.60;16.40;;;;;;;3.01;59.33;100289.55;214196;1288;98035;-83
2023/03/27 18:01:43;;;;;;;24.90;10.80;;;;;;;2.73;60.14;100291.88;214029;1289;138256;-86
2023/03/27 18:06:44;;;;;;;15.40;5.00;;;;;;;2.53;61.72;100293.05;214521;1289;138745;-86
2023/03/27 18:11:44;;;;;;;16.30;6.70;;;;;;;2.35;62.27;100295.52;213871;1289;138845;-85
2023/03/27 18:16:45;;;;;;;29.30;13.10;;;;;;;2.17;63.09;100297.37;214224;1291;138190;-84
2023/03/27 18:21:45;;;;;;;29.30;12.60;;;;;;;1.96;63.71;100302.75;213798;1289;139461;-84
2023/03/27 18:26:46;;;;;;;22.00;8.60;;;;;;;1.74;63.92;100301.77;214572;1294;97938;-84
2023/03/27 18:31:47;;;;;;;159.20;49.20;;;;;;;1.56;64.91;100300.15;213850;1289;138565;-84
2023/03/27 18:36:50;;;;;;;170.60;55.10;;;;;;;1.45;66.29;100303.80;214290;1294;139415;-84
2023/03/27 18:41:52;;;;;;;107.60;36.40;;;;;;;1.26;66.27;100303.59;213639;1289;139107;-84
2023/03/27 18:46:53;;;;;;;87.00;28.30;;;;;;;1.07;66.92;100303.32;214197;1288;138364;-84
2023/03/27 18:51:53;;;;;;;102.70;37.00;;;;;;;0.92;67.59;100303.84;213772;1289;139399;-84
2023/03/27 18:56:53;;;;;;;106.00;39.60;;;;;;;0.77;68.25;100308.01;214597;1292;138359;-83
2023/03/27 19:01:54;;;;;;;105.70;39.50;;;;;;;0.61;68.68;100304.23;214025;1291;138671;-82
2023/03/27 19:06:54;;;;;;;175.00;61.30;;;;;;;0.43;69.69;100300.70;214604;1289;138475;-83
2023/03/27 19:11:55;;;;;;;155.40;54.80;;;;;;;0.31;70.18;100298.21;213606;1291;141123;-84
2023/03/27 19:16:55;;;;;;;235.70;75.80;;;;;;;0.19;71.14;100299.08;214180;1289;138797;-83
2023/03/27 19:21:56;;;;;;;150.40;55.50;;;;;;;0.09;71.56;100297.71;213753;1289;139474;-84
2023/03/27 19:26:56;;;;;;;124.80;46.90;;;;;;;-0.03;72.05;100299.95;214230;1289;139426;-84
2023/03/27 19:31:57;;;;;;;103.00;39.90;;;;;;;-0.10;73.45;100296.49;214504;1289;140327;-86
2023/03/27 19:36:57;;;;;;;106.70;41.10;;;;;;;-0.17;73.82;100294.59;214587;1289;139969;-84
2023/03/27 19:41:58;;;;;;;101.50;44.60;;;;;;;-0.27;73.77;100287.97;214059;1293;139472;-85
2023/03/27 19:47:02;;;;;;;93.30;36.40;;;;;;;-0.37;74.57;100277.41;214543;1294;140195;-84
2023/03/27 19:52:02;;;;;;;80.30;34.30;;;;;;;-0.42;75.56;100272.88;214035;1292;139711;-85
2023/03/27 19:57:03;;;;;;;83.90;38.40;;;;;;;-0.48;75.41;100268.02;214310;1289;139196;-85
2023/03/27 20:02:03;;;;;;;113.90;49.20;;;;;;;-0.58;75.80;100260.86;213869;1289;139790;-85
2023/03/27 20:07:08;;;;;;;103.50;48.20;;;;;;;-0.67;75.82;100258.43;214410;1292;140160;-84
2023/03/27 20:12:11;;;;;;;95.10;42.00;;;;;;;-0.75;76.48;100254.52;213923;1289;140045;-84
2023/03/27 20:17:18;;;;;;;96.00;37.40;;;;;;;-0.84;76.91;100249.75;214413;1289;139400;-84
2023/03/27 20:22:19;;;;;;;78.80;34.90;;;;;;;-0.92;77.06;100251.34;213953;1289;139580;-85
2023/03/27 20:27:20;;;;;;;74.90;31.90;;;;;;;-0.98;77.35;100245.39;214324;1289;139341;-85
2023/03/27 20:32:20;;;;;;;79.50;35.20;;;;;;;-1.05;77.15;100234.64;214070;1291;140151;-85
2023/03/27 20:37:25;;;;;;;54.60;23.40;;;;;;;-1.12;76.38;100240.85;214217;1289;139803;-85
2023/03/27 20:42:26;;;;;;;61.10;26.70;;;;;;;-1.16;74.74;100235.48;213571;1289;140640;-84
2023/03/27 20:47:37;;;;;;;55.80;24.20;;;;;;;-1.19;74.27;100229.79;214471;1292;139369;-86
2023/03/27 20:52:38;;;;;;;49.50;21.90;;;;;;;-1.18;74.20;100218.04;214228;1288;140204;-86
2023/03/27 20:57:38;;;;;;;49.20;20.90;;;;;;;-1.13;73.99;100211.83;214083;1294;139461;-87
2023/03/27 21:02:39;;;;;;;45.30;19.80;;;;;;;-1.12;73.57;100212.33;214475;1289;140345;-86
2023/03/27 21:07:40;;;;;;;44.10;17.40;;;;;;;-1.09;73.30;100208.65;214669;1292;138860;-86
2023/03/27 21:12:41;;;;;;;38.40;15.80;;;;;;;-1.03;73.80;100212.77;214196;1288;139929;-86
2023/03/27 21:17:42;;;;;;;33.60;14.30;;;;;;;-0.94;73.71;100213.35;214258;1291;139405;-88
2023/03/27 21:22:43;;;;;;;29.50;11.90;;;;;;;-0.82;73.70;100206.55;213864;1289;140026;-86
2023/03/27 21:27:43;;;;;;;26.70;10.80;;;;;;;-0.65;73.92;100195.18;214337;1289;140525;-88
2023/03/27 21:32:45;;;;;;;29.30;12.50;;;;;;;-0.46;73.25;100195.52;213846;1289;140841;-87
2023/03/27 21:37:46;;;;;;;28.60;9.80;;;;;;;-0.31;73.47;100188.35;214311;1289;138934;-86
2023/03/27 21:42:46;;;;;;;25.80;11.10;;;;;;;-0.23;73.85;100186.57;213632;1291;139683;-86
2023/03/27 21:47:47;;;;;;;23.10;9.00;;;;;;;-0.17;74.32;100184.32;214121;1292;140244;-86
2023/03/27 21:52:48;;;;;;;22.50;8.20;;;;;;;-0.12;74.31;100176.33;213645;1289;139446;-87
2023/03/27 21:57:48;;;;;;;19.30;7.70;;;;;;;-0.08;74.67;100177.60;214207;1291;139453;-85
2023/03/27 22:02:49;;;;;;;23.70;9.10;;;;;;;-0.06;75.41;100174.61;214274;1289;140043;-85
2023/03/27 22:07:49;;;;;;;19.30;7.60;;;;;;;-0.03;76.26;100175.08;214564;1291;97991;-85
2023/03/27 22:12:49;;;;;;;16.70;6.20;;;;;;;0.00;76.96;100167.58;213771;1291;138939;-86
2023/03/27 22:17:50;;;;;;;18.20;7.00;;;;;;;0.03;78.57;100160.83;214172;1289;139214;-86
2023/03/27 22:22:51;;;;;;;17.20;5.70;;;;;;;0.06;79.56;100159.25;213533;1291;140277;-87
2023/03/27 22:27:51;;;;;;;15.00;6.10;;;;;;;0.09;80.36;100159.64;214062;1291;138979;-86
2023/03/27 22:32:52;;;;;;;15.70;6.30;;;;;;;0.10;81.06;100149.40;213550;1289;139778;-86
2023/03/27 22:37:52;;;;;;;13.00;4.80;;;;;;;0.10;81.66;100142.14;214481;1291;98396;-86
2023/03/27 22:42:52;;;;;;;13.10;5.20;;;;;;;0.12;82.88;100137.20;213885;1294;139038;-85
2023/03/27 22:47:53;;;;;;;9.10;4.00;;;;;;;0.14;83.28;100130.75;214250;1291;138759;-86
2023/03/27 22:52:53;;;;;;;12.00;4.10;;;;;;;0.16;84.25;100136.07;213605;1291;138888;-85
2023/03/27 22:57:53;;;;;;;11.60;4.40;;;;;;;0.15;84.79;100141.33;214043;1291;138777;-85
2023/03/27 23:02:54;;;;;;;9.90;3.30;;;;;;;0.17;85.57;100143.72;213684;1292;138971;-85
2023/03/27 23:07:54;;;;;;;9.90;3.70;;;;;;;0.20;86.45;100140.39;214294;1289;98113;-85
2023/03/27 23:12:55;;;;;;;14.50;3.80;;;;;;;0.25;87.07;100136.83;213310;1289;139890;-85
2023/03/27 23:17:55;;;;;;;9.70;4.00;;;;;;;0.30;87.54;100129.96;214239;1290;139506;-85
2023/03/27 23:22:56;;;;;;;9.10;3.70;;;;;;;0.37;88.10;100132.28;213594;1292;139023;-86
2023/03/27 23:27:56;;;;;;;8.60;3.20;;;;;;;0.45;88.81;100131.48;214164;1290;139449;-86